Birmingham, Alabama
Current Conditions -  °F | °C
As of 9:53 AM on Sunday 23 Nov 2014 (Local Time) from KBHM Reporting Station
Light Rain Light Rain  
Wind Chill: 59°   Ceiling: 900
Heat Index: 59°   Visibility: 6mi
Dew Point: 57°   Wind: 14mph
Humidity: 93%   Direction: 110°ESE
Pressure: 29.82"   Gusts: 25mph
Location:  33.52°N, 86.81°W
Report Text: KBHM 231553Z 11012G22KT 6SM -RA BR OVC009 15/14 A2982 RMK AO2 RAB38 SLP093 P0000 T01500139
Loading
Personal Weather Stations






























Interactive Weather Map New forecast layout! Learn more

10-Day Weather Forecast

Advertisements
Track Severe Weather on mobile